Weather at Negotino Airfield

Public forecast

Using degrees Celsius for public forecast. Weather courtesy of forecast.io.

Closest aviation weather report (METAR) to Negotino Airfield

Closest report is Skopje International Airport, 33.9 nm (62.7 km) NW. Retrieved 2022/06/29 00:30 UTC (0 seconds ago):

LWSK 290030Z 01002KT CAVOK 21/15 Q1018 NOSIG

Closest aviation forecast (TAF) to Negotino Airfield

Closest forecast is Skopje International Airport, 33.9 nm (62.7 km) NW. Retrieved 2022-06-29 00:27 UTC (2 minutes ago):

TAF LWSK 282330Z 2900/2924 04006KT 9999 FEW050 SCT100 TEMPO 2910/2916 16010KT